sensor_id;sensor_type;location;lat;lon;timestamp;temperature;humidity
21481;DHT22;10902;48.158;8.634;2023-04-06T00:01:31;-2.20;99.90
21481;DHT22;10902;48.158;8.634;2023-04-06T00:03:57;-2.20;99.90
21481;DHT22;10902;48.158;8.634;2023-04-06T00:06:22;-2.30;99.90
21481;DHT22;10902;48.158;8.634;2023-04-06T00:08:48;-2.30;99.90
21481;DHT22;10902;48.158;8.634;2023-04-06T00:11:14;-2.40;99.90
21481;DHT22;10902;48.158;8.634;2023-04-06T00:13:39;-2.50;99.90
21481;DHT22;10902;48.158;8.634;2023-04-06T00:16:05;-2.50;99.90
21481;DHT22;10902;48.158;8.634;2023-04-06T00:18:31;-2.50;99.90
21481;DHT22;10902;48.158;8.634;2023-04-06T00:20:57;-2.60;99.90
21481;DHT22;10902;48.158;8.634;2023-04-06T00:23:23;-2.50;99.90
21481;DHT22;10902;48.158;8.634;2023-04-06T00:25:48;-2.40;99.90
21481;DHT22;10902;48.158;8.634;2023-04-06T00:28:14;-2.50;99.90
21481;DHT22;10902;48.158;8.634;2023-04-06T00:30:40;-2.50;99.90
21481;DHT22;10902;48.158;8.634;2023-04-06T00:33:06;-2.50;99.90
21481;DHT22;10902;48.158;8.634;2023-04-06T00:35:32;-2.60;99.90
21481;DHT22;10902;48.158;8.634;2023-04-06T00:37:58;-2.60;99.90
21481;DHT22;10902;48.158;8.634;2023-04-06T00:40:23;-2.70;99.90
21481;DHT22;10902;48.158;8.634;2023-04-06T00:42:49;-2.70;99.90
21481;DHT22;10902;48.158;8.634;2023-04-06T00:45:15;-2.80;99.90
21481;DHT22;10902;48.158;8.634;2023-04-06T00:47:41;-2.80;99.90
21481;DHT22;10902;48.158;8.634;2023-04-06T00:50:07;-2.80;99.90
21481;DHT22;10902;48.158;8.634;2023-04-06T00:52:34;-2.80;99.90
21481;DHT22;10902;48.158;8.634;2023-04-06T00:55:00;-2.90;99.90
21481;DHT22;10902;48.158;8.634;2023-04-06T00:57:25;-2.80;99.90
21481;DHT22;10902;48.158;8.634;2023-04-06T00:59:52;-2.80;99.90
21481;DHT22;10902;48.158;8.634;2023-04-06T01:02:18;-2.90;99.90
21481;DHT22;10902;48.158;8.634;2023-04-06T01:04:44;-2.90;99.90
21481;DHT22;10902;48.158;8.634;2023-04-06T01:07:10;-3.00;99.90
21481;DHT22;10902;48.158;8.634;2023-04-06T01:09:36;-3.00;99.90
21481;DHT22;10902;48.158;8.634;2023-04-06T01:12:01;-3.00;99.90
21481;DHT22;10902;48.158;8.634;2023-04-06T01:14:27;-3.10;99.90
21481;DHT22;10902;48.158;8.634;2023-04-06T01:16:53;-3.20;99.90
21481;DHT22;10902;48.158;8.634;2023-04-06T01:19:19;-3.20;99.90
21481;DHT22;10902;48.158;8.634;2023-04-06T01:21:46;-3.30;99.90
21481;DHT22;10902;48.158;8.634;2023-04-06T01:24:12;-3.40;99.90
21481;DHT22;10902;48.158;8.634;2023-04-06T01:26:38;-3.40;99.90
21481;DHT22;10902;48.158;8.634;2023-04-06T01:29:04;-3.40;99.90
21481;DHT22;10902;48.158;8.634;2023-04-06T01:31:30;-3.40;99.90
21481;DHT22;10902;48.158;8.634;2023-04-06T01:33:55;-3.30;99.90
21481;DHT22;10902;48.158;8.634;2023-04-06T01:36:21;-3.20;99.90
21481;DHT22;10902;48.158;8.634;2023-04-06T01:38:47;-3.20;99.90
21481;DHT22;10902;48.158;8.634;2023-04-06T01:41:13;-3.20;99.90
21481;DHT22;10902;48.158;8.634;2023-04-06T01:43:38;-3.20;99.90
21481;DHT22;10902;48.158;8.634;2023-04-06T01:46:04;-3.20;99.90
21481;DHT22;10902;48.158;8.634;2023-04-06T01:48:30;-3.10;99.90
21481;DHT22;10902;48.158;8.634;2023-04-06T01:50:56;-3.10;99.90
21481;DHT22;10902;48.158;8.634;2023-04-06T01:53:22;-3.00;99.90
21481;DHT22;10902;48.158;8.634;2023-04-06T01:55:47;-3.10;99.90
21481;DHT22;10902;48.158;8.634;2023-04-06T01:58:13;-3.20;99.90
21481;DHT22;10902;48.158;8.634;2023-04-06T02:00:39;-3.20;99.90
21481;DHT22;10902;48.158;8.634;2023-04-06T02:03:05;-3.30;99.90
21481;DHT22;10902;48.158;8.634;2023-04-06T02:05:32;-3.20;99.90
21481;DHT22;10902;48.158;8.634;2023-04-06T02:07:58;-3.30;99.90
21481;DHT22;10902;48.158;8.634;2023-04-06T02:10:24;-3.30;99.90
21481;DHT22;10902;48.158;8.634;2023-04-06T02:12:50;-3.40;99.90
21481;DHT22;10902;48.158;8.634;2023-04-06T02:15:15;-3.40;99.90
21481;DHT22;10902;48.158;8.634;2023-04-06T02:17:42;-3.50;99.90
21481;DHT22;10902;48.158;8.634;2023-04-06T02:20:08;-3.60;99.90
21481;DHT22;10902;48.158;8.634;2023-04-06T02:22:35;-3.60;99.90
21481;DHT22;10902;48.158;8.634;2023-04-06T02:25:00;-3.50;99.90
21481;DHT22;10902;48.158;8.634;2023-04-06T02:27:26;-3.50;99.90
21481;DHT22;10902;48.158;8.634;2023-04-06T02:29:52;-3.40;99.90
21481;DHT22;10902;48.158;8.634;2023-04-06T02:32:18;-3.40;99.90
21481;DHT22;10902;48.158;8.634;2023-04-06T02:34:43;-3.40;99.90
21481;DHT22;10902;48.158;8.634;2023-04-06T02:37:09;-3.40;99.90
21481;DHT22;10902;48.158;8.634;2023-04-06T02:39:34;-3.40;99.90
21481;DHT22;10902;48.158;8.634;2023-04-06T02:42:00;-3.40;99.90
21481;DHT22;10902;48.158;8.634;2023-04-06T02:44:26;-3.40;99.90
21481;DHT22;10902;48.158;8.634;2023-04-06T02:46:51;-3.50;99.90
21481;DHT22;10902;48.158;8.634;2023-04-06T02:49:17;-3.50;99.90
21481;DHT22;10902;48.158;8.634;2023-04-06T02:51:43;-3.50;99.90
21481;DHT22;10902;48.158;8.634;2023-04-06T02:54:08;-3.60;99.90
21481;DHT22;10902;48.158;8.634;2023-04-06T02:56:34;-3.60;99.90
21481;DHT22;10902;48.158;8.634;2023-04-06T02:59:00;-3.70;99.90
21481;DHT22;10902;48.158;8.634;2023-04-06T03:01:26;-3.70;99.90
21481;DHT22;10902;48.158;8.634;2023-04-06T03:03:52;-3.70;99.90
21481;DHT22;10902;48.158;8.634;2023-04-06T03:06:17;-3.70;99.90
21481;DHT22;10902;48.158;8.634;2023-04-06T03:08:43;-3.60;99.90
21481;DHT22;10902;48.158;8.634;2023-04-06T03:11:09;-3.60;99.90
21481;DHT22;10902;48.158;8.634;2023-04-06T03:13:35;-3.50;99.90
21481;DHT22;10902;48.158;8.634;2023-04-06T03:16:01;-3.50;99.90
21481;DHT22;10902;48.158;8.634;2023-04-06T03:18:27;-3.50;99.90
21481;DHT22;10902;48.158;8.634;2023-04-06T03:20:52;-3.50;99.90
21481;DHT22;10902;48.158;8.634;2023-04-06T03:23:21;-3.50;99.90
21481;DHT22;10902;48.158;8.634;2023-04-06T03:25:46;-3.40;99.90
21481;DHT22;10902;48.158;8.634;2023-04-06T03:28:12;-3.50;99.90
21481;DHT22;10902;48.158;8.634;2023-04-06T03:30:38;-3.50;99.90
21481;DHT22;10902;48.158;8.634;2023-04-06T03:33:03;-3.50;99.90
21481;DHT22;10902;48.158;8.634;2023-04-06T03:35:29;-3.40;99.90
21481;DHT22;10902;48.158;8.634;2023-04-06T03:37:55;-3.30;99.90
21481;DHT22;10902;48.158;8.634;2023-04-06T03:40:21;-3.30;99.90
21481;DHT22;10902;48.158;8.634;2023-04-06T03:42:46;-3.30;99.90
21481;DHT22;10902;48.158;8.634;2023-04-06T03:45:12;-3.40;99.90
21481;DHT22;10902;48.158;8.634;2023-04-06T03:47:40;-3.40;99.90
21481;DHT22;10902;48.158;8.634;2023-04-06T03:50:06;-3.40;99.90
21481;DHT22;10902;48.158;8.634;2023-04-06T03:52:32;-3.50;99.90
21481;DHT22;10902;48.158;8.634;2023-04-06T03:54:58;-3.50;99.90
21481;DHT22;10902;48.158;8.634;2023-04-06T03:57:23;-3.40;99.90
21481;DHT22;10902;48.158;8.634;2023-04-06T03:59:49;-3.50;99.90
21481;DHT22;10902;48.158;8.634;2023-04-06T04:02:15;-3.50;99.90
21481;DHT22;10902;48.158;8.634;2023-04-06T04:04:41;-3.60;99.90
21481;DHT22;10902;48.158;8.634;2023-04-06T04:07:06;-3.60;99.90
21481;DHT22;10902;48.158;8.634;2023-04-06T04:09:32;-3.60;99.90
21481;DHT22;10902;48.158;8.634;2023-04-06T04:11:57;-3.60;99.90
21481;DHT22;10902;48.158;8.634;2023-04-06T04:14:23;-3.60;99.90
21481;DHT22;10902;48.158;8.634;2023-04-06T04:16:49;-3.60;99.90
21481;DHT22;10902;48.158;8.634;2023-04-06T04:19:15;-3.60;99.90
21481;DHT22;10902;48.158;8.634;2023-04-06T04:21:45;-3.60;99.90
21481;DHT22;10902;48.158;8.634;2023-04-06T04:24:11;-3.70;99.90
21481;DHT22;10902;48.158;8.634;2023-04-06T04:26:37;-3.70;99.90
21481;DHT22;10902;48.158;8.634;2023-04-06T04:29:03;-3.70;99.90
21481;DHT22;10902;48.158;8.634;2023-04-06T04:31:29;-3.70;99.90
21481;DHT22;10902;48.158;8.634;2023-04-06T04:33:55;-3.70;99.90
21481;DHT22;10902;48.158;8.634;2023-04-06T04:36:20;-3.70;99.90
21481;DHT22;10902;48.158;8.634;2023-04-06T04:38:46;-3.80;99.90
21481;DHT22;10902;48.158;8.634;2023-04-06T04:41:12;-3.80;99.90
21481;DHT22;10902;48.158;8.634;2023-04-06T04:43:37;-3.80;99.90
21481;DHT22;10902;48.158;8.634;2023-04-06T04:46:04;-3.80;99.90
21481;DHT22;10902;48.158;8.634;2023-04-06T04:48:30;-3.70;99.90
21481;DHT22;10902;48.158;8.634;2023-04-06T04:50:55;-3.70;99.90
21481;DHT22;10902;48.158;8.634;2023-04-06T04:53:21;-3.80;99.90
21481;DHT22;10902;48.158;8.634;2023-04-06T04:55:47;-3.80;99.90
21481;DHT22;10902;48.158;8.634;2023-04-06T04:58:12;-3.80;99.90
21481;DHT22;10902;48.158;8.634;2023-04-06T05:00:42;-3.80;99.90
21481;DHT22;10902;48.158;8.634;2023-04-06T05:03:08;-3.80;99.90
21481;DHT22;10902;48.158;8.634;2023-04-06T05:05:35;-3.80;99.90
21481;DHT22;10902;48.158;8.634;2023-04-06T05:08:01;-3.80;99.90
21481;DHT22;10902;48.158;8.634;2023-04-06T05:10:26;-3.80;99.90
21481;DHT22;10902;48.158;8.634;2023-04-06T05:12:52;-3.70;99.90
21481;DHT22;10902;48.158;8.634;2023-04-06T05:15:18;-3.70;99.90
21481;DHT22;10902;48.158;8.634;2023-04-06T05:17:43;-3.70;99.90
21481;DHT22;10902;48.158;8.634;2023-04-06T05:20:10;-3.70;99.90
21481;DHT22;10902;48.158;8.634;2023-04-06T05:22:35;-3.60;99.90
21481;DHT22;10902;48.158;8.634;2023-04-06T05:25:02;-3.60;99.90
21481;DHT22;10902;48.158;8.634;2023-04-06T05:27:28;-3.60;99.90
21481;DHT22;10902;48.158;8.634;2023-04-06T05:29:53;-3.50;99.90
21481;DHT22;10902;48.158;8.634;2023-04-06T05:32:19;-3.60;99.90
21481;DHT22;10902;48.158;8.634;2023-04-06T05:34:48;-3.60;99.90
21481;DHT22;10902;48.158;8.634;2023-04-06T05:37:14;-3.60;99.90
21481;DHT22;10902;48.158;8.634;2023-04-06T05:39:40;-3.60;99.90
21481;DHT22;10902;48.158;8.634;2023-04-06T05:42:06;-3.50;99.90
21481;DHT22;10902;48.158;8.634;2023-04-06T05:44:32;-3.50;99.90
21481;DHT22;10902;48.158;8.634;2023-04-06T05:46:57;-3.50;99.90
21481;DHT22;10902;48.158;8.634;2023-04-06T05:49:23;-3.40;99.90
21481;DHT22;10902;48.158;8.634;2023-04-06T05:51:48;-3.40;99.90
21481;DHT22;10902;48.158;8.634;2023-04-06T05:54:14;-3.30;99.90
21481;DHT22;10902;48.158;8.634;2023-04-06T05:56:40;-3.20;99.90
21481;DHT22;10902;48.158;8.634;2023-04-06T05:59:06;-3.20;99.90
21481;DHT22;10902;48.158;8.634;2023-04-06T06:01:33;-3.20;99.90
21481;DHT22;10902;48.158;8.634;2023-04-06T06:04:01;-3.10;99.90
21481;DHT22;10902;48.158;8.634;2023-04-06T06:06:28;-3.00;99.90
21481;DHT22;10902;48.158;8.634;2023-04-06T06:08:55;-2.90;99.90
21481;DHT22;10902;48.158;8.634;2023-04-06T06:11:24;-2.80;99.90
21481;DHT22;10902;48.158;8.634;2023-04-06T06:13:50;-2.70;99.90
21481;DHT22;10902;48.158;8.634;2023-04-06T06:16:17;-2.60;99.90
21481;DHT22;10902;48.158;8.634;2023-04-06T06:18:43;-2.50;99.90
21481;DHT22;10902;48.158;8.634;2023-04-06T06:21:09;-2.40;99.90
21481;DHT22;10902;48.158;8.634;2023-04-06T06:23:35;-2.20;99.90
21481;DHT22;10902;48.158;8.634;2023-04-06T06:26:00;-2.10;99.90
21481;DHT22;10902;48.158;8.634;2023-04-06T06:28:26;-2.00;99.90
21481;DHT22;10902;48.158;8.634;2023-04-06T06:30:52;-1.90;99.90
21481;DHT22;10902;48.158;8.634;2023-04-06T06:33:18;-1.80;99.90
21481;DHT22;10902;48.158;8.634;2023-04-06T06:35:44;-1.80;99.90
21481;DHT22;10902;48.158;8.634;2023-04-06T06:38:09;-1.70;99.90
21481;DHT22;10902;48.158;8.634;2023-04-06T06:40:35;-1.60;99.90
21481;DHT22;10902;48.158;8.634;2023-04-06T06:43:00;-1.50;99.90
21481;DHT22;10902;48.158;8.634;2023-04-06T06:45:26;-1.30;99.90
21481;DHT22;10902;48.158;8.634;2023-04-06T06:47:52;-1.20;99.90
21481;DHT22;10902;48.158;8.634;2023-04-06T06:50:17;-1.20;99.90
21481;DHT22;10902;48.158;8.634;2023-04-06T06:52:43;-1.10;99.90
21481;DHT22;10902;48.158;8.634;2023-04-06T06:55:10;-1.10;99.90
21481;DHT22;10902;48.158;8.634;2023-04-06T06:57:36;-0.80;99.90
21481;DHT22;10902;48.158;8.634;2023-04-06T07:00:02;-0.70;99.90
21481;DHT22;10902;48.158;8.634;2023-04-06T07:02:28;-0.50;99.90
21481;DHT22;10902;48.158;8.634;2023-04-06T07:04:53;-0.40;99.90
21481;DHT22;10902;48.158;8.634;2023-04-06T07:07:19;-0.20;99.90
21481;DHT22;10902;48.158;8.634;2023-04-06T07:09:45;0.00;99.90
21481;DHT22;10902;48.158;8.634;2023-04-06T07:12:10;0.00;99.90
21481;DHT22;10902;48.158;8.634;2023-04-06T07:14:36;0.20;99.90
21481;DHT22;10902;48.158;8.634;2023-04-06T07:17:02;0.20;99.90
21481;DHT22;10902;48.158;8.634;2023-04-06T07:19:27;0.40;99.90
21481;DHT22;10902;48.158;8.634;2023-04-06T07:21:53;0.70;99.90
21481;DHT22;10902;48.158;8.634;2023-04-06T07:24:19;0.80;99.90
21481;DHT22;10902;48.158;8.634;2023-04-06T07:26:45;0.90;99.90
21481;DHT22;10902;48.158;8.634;2023-04-06T07:29:11;1.10;99.90
21481;DHT22;10902;48.158;8.634;2023-04-06T07:31:37;1.10;99.90
21481;DHT22;10902;48.158;8.634;2023-04-06T07:34:03;1.30;99.90
21481;DHT22;10902;48.158;8.634;2023-04-06T07:36:29;1.40;99.90
21481;DHT22;10902;48.158;8.634;2023-04-06T07:38:55;1.60;99.90
21481;DHT22;10902;48.158;8.634;2023-04-06T07:41:20;1.70;99.90
21481;DHT22;10902;48.158;8.634;2023-04-06T07:43:46;1.90;99.90
21481;DHT22;10902;48.158;8.634;2023-04-06T07:46:12;1.90;99.90
21481;DHT22;10902;48.158;8.634;2023-04-06T07:48:37;2.10;99.90
21481;DHT22;10902;48.158;8.634;2023-04-06T07:51:04;2.30;99.90
21481;DHT22;10902;48.158;8.634;2023-04-06T07:53:30;2.40;99.90
21481;DHT22;10902;48.158;8.634;2023-04-06T07:55:57;2.60;99.90
21481;DHT22;10902;48.158;8.634;2023-04-06T07:58:23;2.90;99.90
21481;DHT22;10902;48.158;8.634;2023-04-06T08:00:49;3.00;99.90
21481;DHT22;10902;48.158;8.634;2023-04-06T08:03:14;3.20;99.90
21481;DHT22;10902;48.158;8.634;2023-04-06T08:05:41;3.40;99.90
21481;DHT22;10902;48.158;8.634;2023-04-06T08:08:07;3.60;99.90
21481;DHT22;10902;48.158;8.634;2023-04-06T08:10:33;3.70;99.90
21481;DHT22;10902;48.158;8.634;2023-04-06T08:13:00;3.80;99.90
21481;DHT22;10902;48.158;8.634;2023-04-06T08:15:26;4.00;99.90
21481;DHT22;10902;48.158;8.634;2023-04-06T08:17:51;4.30;99.90
21481;DHT22;10902;48.158;8.634;2023-04-06T08:20:17;4.50;99.90
21481;DHT22;10902;48.158;8.634;2023-04-06T08:22:43;4.80;99.90
21481;DHT22;10902;48.158;8.634;2023-04-06T08:25:09;4.90;99.90
21481;DHT22;10902;48.158;8.634;2023-04-06T08:27:34;5.00;99.90
21481;DHT22;10902;48.158;8.634;2023-04-06T08:30:00;5.20;99.90
21481;DHT22;10902;48.158;8.634;2023-04-06T08:32:26;5.50;99.90
21481;DHT22;10902;48.158;8.634;2023-04-06T08:34:55;5.70;99.90
21481;DHT22;10902;48.158;8.634;2023-04-06T08:37:21;6.20;99.90
21481;DHT22;10902;48.158;8.634;2023-04-06T08:39:47;6.90;99.90
21481;DHT22;10902;48.158;8.634;2023-04-06T08:42:18;7.20;99.90
21481;DHT22;10902;48.158;8.634;2023-04-06T08:44:45;7.20;99.90
21481;DHT22;10902;48.158;8.634;2023-04-06T08:47:12;7.20;99.90
21481;DHT22;10902;48.158;8.634;2023-04-06T08:49:38;7.20;99.90
21481;DHT22;10902;48.158;8.634;2023-04-06T08:52:06;7.50;99.90
21481;DHT22;10902;48.158;8.634;2023-04-06T08:54:33;7.60;99.90
21481;DHT22;10902;48.158;8.634;2023-04-06T08:57:00;8.10;99.90
21481;DHT22;10902;48.158;8.634;2023-04-06T08:59:27;9.00;99.90
21481;DHT22;10902;48.158;8.634;2023-04-06T09:01:53;9.90;99.90
21481;DHT22;10902;48.158;8.634;2023-04-06T09:04:20;9.60;99.90
21481;DHT22;10902;48.158;8.634;2023-04-06T09:06:45;9.70;99.90
21481;DHT22;10902;48.158;8.634;2023-04-06T09:09:11;9.10;99.90
21481;DHT22;10902;48.158;8.634;2023-04-06T09:11:45;8.70;99.90
21481;DHT22;10902;48.158;8.634;2023-04-06T09:14:11;9.60;99.90
21481;DHT22;10902;48.158;8.634;2023-04-06T09:16:44;9.20;99.90
21481;DHT22;10902;48.158;8.634;2023-04-06T09:19:12;9.20;99.90
21481;DHT22;10902;48.158;8.634;2023-04-06T09:21:38;9.60;99.90
21481;DHT22;10902;48.158;8.634;2023-04-06T09:24:06;9.60;99.90
21481;DHT22;10902;48.158;8.634;2023-04-06T09:26:43;9.90;99.90
21481;DHT22;10902;48.158;8.634;2023-04-06T09:29:09;10.30;99.90
21481;DHT22;10902;48.158;8.634;2023-04-06T09:31:35;9.90;99.90
21481;DHT22;10902;48.158;8.634;2023-04-06T09:34:00;10.40;99.90
21481;DHT22;10902;48.158;8.634;2023-04-06T09:36:31;9.60;99.90
21481;DHT22;10902;48.158;8.634;2023-04-06T09:39:02;9.50;99.90
21481;DHT22;10902;48.158;8.634;2023-04-06T09:41:30;10.30;99.90
21481;DHT22;10902;48.158;8.634;2023-04-06T09:44:07;10.60;99.90
21481;DHT22;10902;48.158;8.634;2023-04-06T09:46:36;10.50;99.90
21481;DHT22;10902;48.158;8.634;2023-04-06T09:49:03;9.30;99.90
21481;DHT22;10902;48.158;8.634;2023-04-06T09:51:31;8.90;99.90
21481;DHT22;10902;48.158;8.634;2023-04-06T09:53:58;9.80;99.90
21481;DHT22;10902;48.158;8.634;2023-04-06T09:56:33;10.00;99.90
21481;DHT22;10902;48.158;8.634;2023-04-06T09:59:06;10.00;99.90
21481;DHT22;10902;48.158;8.634;2023-04-06T10:01:33;11.10;99.90
21481;DHT22;10902;48.158;8.634;2023-04-06T10:06:32;12.60;99.90
21481;DHT22;10902;48.158;8.634;2023-04-06T10:09:02;13.00;99.90
21481;DHT22;10902;48.158;8.634;2023-04-06T10:11:30;14.00;99.90
21481;DHT22;10902;48.158;8.634;2023-04-06T10:13:56;14.80;99.90
21481;DHT22;10902;48.158;8.634;2023-04-06T10:16:22;14.30;99.90
21481;DHT22;10902;48.158;8.634;2023-04-06T10:18:54;13.70;99.90
21481;DHT22;10902;48.158;8.634;2023-04-06T10:21:24;13.70;99.90
21481;DHT22;10902;48.158;8.634;2023-04-06T10:23:53;14.10;99.90
21481;DHT22;10902;48.158;8.634;2023-04-06T10:26:21;13.70;99.90
21481;DHT22;10902;48.158;8.634;2023-04-06T10:28:47;13.30;99.90
21481;DHT22;10902;48.158;8.634;2023-04-06T10:31:13;14.10;99.90
21481;DHT22;10902;48.158;8.634;2023-04-06T10:33:39;14.60;99.90
21481;DHT22;10902;48.158;8.634;2023-04-06T10:36:13;14.80;99.90
21481;DHT22;10902;48.158;8.634;2023-04-06T10:38:40;15.10;99.90
21481;DHT22;10902;48.158;8.634;2023-04-06T10:41:10;15.10;99.90
21481;DHT22;10902;48.158;8.634;2023-04-06T10:43:37;15.60;99.90
21481;DHT22;10902;48.158;8.634;2023-04-06T10:46:04;16.50;99.90
21481;DHT22;10902;48.158;8.634;2023-04-06T10:48:42;17.20;99.90
21481;DHT22;10902;48.158;8.634;2023-04-06T10:51:10;16.20;99.10
21481;DHT22;10902;48.158;8.634;2023-04-06T10:53:36;16.90;99.90
21481;DHT22;10902;48.158;8.634;2023-04-06T10:56:02;17.90;99.30
21481;DHT22;10902;48.158;8.634;2023-04-06T10:58:29;18.80;97.70
21481;DHT22;10902;48.158;8.634;2023-04-06T11:00:56;18.40;96.30
21481;DHT22;10902;48.158;8.634;2023-04-06T11:03:22;18.40;96.20
21481;DHT22;10902;48.158;8.634;2023-04-06T11:05:49;17.80;94.90
21481;DHT22;10902;48.158;8.634;2023-04-06T11:08:31;17.40;94.80
21481;DHT22;10902;48.158;8.634;2023-04-06T11:11:08;16.60;96.10
21481;DHT22;10902;48.158;8.634;2023-04-06T11:13:42;16.90;95.50
21481;DHT22;10902;48.158;8.634;2023-04-06T11:16:22;17.00;96.20
21481;DHT22;10902;48.158;8.634;2023-04-06T11:18:56;17.20;94.50
21481;DHT22;10902;48.158;8.634;2023-04-06T11:21:41;17.00;94.90
21481;DHT22;10902;48.158;8.634;2023-04-06T11:24:23;14.40;95.90
21481;DHT22;10902;48.158;8.634;2023-04-06T11:26:54;14.30;96.80
21481;DHT22;10902;48.158;8.634;2023-04-06T11:29:26;14.40;96.00
21481;DHT22;10902;48.158;8.634;2023-04-06T11:31:57;15.00;96.10
21481;DHT22;10902;48.158;8.634;2023-04-06T11:34:24;15.30;97.00
21481;DHT22;10902;48.158;8.634;2023-04-06T11:37:00;14.50;96.00
21481;DHT22;10902;48.158;8.634;2023-04-06T11:39:28;15.80;96.10
21481;DHT22;10902;48.158;8.634;2023-04-06T11:41:57;16.40;95.50
21481;DHT22;10902;48.158;8.634;2023-04-06T11:44:36;17.20;94.90
21481;DHT22;10902;48.158;8.634;2023-04-06T11:47:03;17.50;93.60
21481;DHT22;10902;48.158;8.634;2023-04-06T11:49:30;17.50;93.80
21481;DHT22;10902;48.158;8.634;2023-04-06T11:51:57;17.80;93.80
21481;DHT22;10902;48.158;8.634;2023-04-06T11:54:50;19.00;93.20
21481;DHT22;10902;48.158;8.634;2023-04-06T11:57:17;17.50;92.20
21481;DHT22;10902;48.158;8.634;2023-04-06T11:59:43;17.80;93.70
21481;DHT22;10902;48.158;8.634;2023-04-06T12:02:09;17.50;93.70
21481;DHT22;10902;48.158;8.634;2023-04-06T12:04:35;17.40;92.60
21481;DHT22;10902;48.158;8.634;2023-04-06T12:07:01;16.50;93.00
21481;DHT22;10902;48.158;8.634;2023-04-06T12:09:27;15.30;93.60
21481;DHT22;10902;48.158;8.634;2023-04-06T12:11:52;16.50;93.30
21481;DHT22;10902;48.158;8.634;2023-04-06T12:14:18;17.00;93.30
21481;DHT22;10902;48.158;8.634;2023-04-06T12:16:43;16.40;93.00
21481;DHT22;10902;48.158;8.634;2023-04-06T12:19:09;16.60;92.80
21481;DHT22;10902;48.158;8.634;2023-04-06T12:21:35;16.60;92.30
21481;DHT22;10902;48.158;8.634;2023-04-06T12:24:04;16.00;92.60
21481;DHT22;10902;48.158;8.634;2023-04-06T12:26:31;16.30;92.10
21481;DHT22;10902;48.158;8.634;2023-04-06T12:28:58;16.30;92.90
21481;DHT22;10902;48.158;8.634;2023-04-06T12:31:30;17.20;92.20
21481;DHT22;10902;48.158;8.634;2023-04-06T12:33:55;16.80;92.00
21481;DHT22;10902;48.158;8.634;2023-04-06T12:36:21;16.00;92.30
21481;DHT22;10902;48.158;8.634;2023-04-06T12:38:47;15.40;92.70
21481;DHT22;10902;48.158;8.634;2023-04-06T12:41:14;15.90;91.10
21481;DHT22;10902;48.158;8.634;2023-04-06T12:43:41;15.70;91.40
21481;DHT22;10902;48.158;8.634;2023-04-06T12:46:07;16.70;91.50
21481;DHT22;10902;48.158;8.634;2023-04-06T12:48:32;17.60;91.80
21481;DHT22;10902;48.158;8.634;2023-04-06T12:51:00;18.50;89.80
21481;DHT22;10902;48.158;8.634;2023-04-06T12:53:26;18.60;87.90
21481;DHT22;10902;48.158;8.634;2023-04-06T12:55:53;19.20;90.00
21481;DHT22;10902;48.158;8.634;2023-04-06T12:58:20;20.20;87.20
21481;DHT22;10902;48.158;8.634;2023-04-06T13:00:46;20.00;84.90
21481;DHT22;10902;48.158;8.634;2023-04-06T13:03:12;19.40;84.60
21481;DHT22;10902;48.158;8.634;2023-04-06T13:05:48;19.40;83.60
21481;DHT22;10902;48.158;8.634;2023-04-06T13:08:14;17.20;80.40
21481;DHT22;10902;48.158;8.634;2023-04-06T13:10:44;16.50;85.60
21481;DHT22;10902;48.158;8.634;2023-04-06T13:13:10;15.40;85.90
21481;DHT22;10902;48.158;8.634;2023-04-06T13:15:36;15.10;86.20
21481;DHT22;10902;48.158;8.634;2023-04-06T13:18:02;15.50;86.80
21481;DHT22;10902;48.158;8.634;2023-04-06T13:20:28;15.40;83.60
21481;DHT22;10902;48.158;8.634;2023-04-06T13:22:54;14.70;83.60
21481;DHT22;10902;48.158;8.634;2023-04-06T13:25:19;14.90;86.20
21481;DHT22;10902;48.158;8.634;2023-04-06T13:27:45;15.70;86.20
21481;DHT22;10902;48.158;8.634;2023-04-06T13:30:13;16.80;85.50
21481;DHT22;10902;48.158;8.634;2023-04-06T13:32:39;17.40;83.40
21481;DHT22;10902;48.158;8.634;2023-04-06T13:35:05;18.20;82.50
21481;DHT22;10902;48.158;8.634;2023-04-06T13:37:32;18.50;79.20
21481;DHT22;10902;48.158;8.634;2023-04-06T13:39:57;15.60;80.10
21481;DHT22;10902;48.158;8.634;2023-04-06T13:42:23;15.20;81.20
21481;DHT22;10902;48.158;8.634;2023-04-06T13:44:49;14.40;79.90
21481;DHT22;10902;48.158;8.634;2023-04-06T13:47:16;13.90;83.20
21481;DHT22;10902;48.158;8.634;2023-04-06T13:49:43;12.10;82.90
21481;DHT22;10902;48.158;8.634;2023-04-06T13:52:09;12.80;85.60
21481;DHT22;10902;48.158;8.634;2023-04-06T13:54:35;13.70;84.40
21481;DHT22;10902;48.158;8.634;2023-04-06T13:57:01;14.10;84.70
21481;DHT22;10902;48.158;8.634;2023-04-06T13:59:36;14.40;83.60
21481;DHT22;10902;48.158;8.634;2023-04-06T14:02:03;14.80;83.80
21481;DHT22;10902;48.158;8.634;2023-04-06T14:04:30;15.80;83.70
21481;DHT22;10902;48.158;8.634;2023-04-06T14:06:57;16.70;82.70
21481;DHT22;10902;48.158;8.634;2023-04-06T14:09:22;16.30;83.30
21481;DHT22;10902;48.158;8.634;2023-04-06T14:11:49;15.10;84.70
21481;DHT22;10902;48.158;8.634;2023-04-06T14:14:14;14.20;86.00
21481;DHT22;10902;48.158;8.634;2023-04-06T14:16:40;14.10;86.20
21481;DHT22;10902;48.158;8.634;2023-04-06T14:19:09;14.50;86.80
21481;DHT22;10902;48.158;8.634;2023-04-06T14:21:35;13.00;87.20
21481;DHT22;10902;48.158;8.634;2023-04-06T14:24:02;12.50;89.70
21481;DHT22;10902;48.158;8.634;2023-04-06T14:26:27;12.80;89.70
21481;DHT22;10902;48.158;8.634;2023-04-06T14:28:53;13.50;89.00
21481;DHT22;10902;48.158;8.634;2023-04-06T14:31:18;13.40;89.30
21481;DHT22;10902;48.158;8.634;2023-04-06T14:33:44;13.60;89.40
21481;DHT22;10902;48.158;8.634;2023-04-06T14:36:10;13.60;88.60
21481;DHT22;10902;48.158;8.634;2023-04-06T14:38:36;14.00;88.10
21481;DHT22;10902;48.158;8.634;2023-04-06T14:41:02;13.10;87.60
21481;DHT22;10902;48.158;8.634;2023-04-06T14:43:27;13.30;85.80
21481;DHT22;10902;48.158;8.634;2023-04-06T14:45:53;12.70;87.10
21481;DHT22;10902;48.158;8.634;2023-04-06T14:48:19;13.00;86.10
21481;DHT22;10902;48.158;8.634;2023-04-06T14:50:57;13.80;86.20
21481;DHT22;10902;48.158;8.634;2023-04-06T14:53:23;14.10;86.90
21481;DHT22;10902;48.158;8.634;2023-04-06T14:55:49;14.70;82.90
21481;DHT22;10902;48.158;8.634;2023-04-06T14:58:18;13.60;83.50
21481;DHT22;10902;48.158;8.634;2023-04-06T15:00:45;13.20;84.10
21481;DHT22;10902;48.158;8.634;2023-04-06T15:03:10;13.90;83.30
21481;DHT22;10902;48.158;8.634;2023-04-06T15:05:36;13.30;84.00
21481;DHT22;10902;48.158;8.634;2023-04-06T15:08:01;13.00;85.90
21481;DHT22;10902;48.158;8.634;2023-04-06T15:10:27;13.50;85.30
21481;DHT22;10902;48.158;8.634;2023-04-06T15:12:53;13.60;85.40
21481;DHT22;10902;48.158;8.634;2023-04-06T15:15:19;13.30;85.10
21481;DHT22;10902;48.158;8.634;2023-04-06T15:17:45;12.30;88.00
21481;DHT22;10902;48.158;8.634;2023-04-06T15:20:10;11.90;87.60
21481;DHT22;10902;48.158;8.634;2023-04-06T15:22:36;11.00;88.00
21481;DHT22;10902;48.158;8.634;2023-04-06T15:25:02;10.40;90.70
21481;DHT22;10902;48.158;8.634;2023-04-06T15:27:27;11.00;90.80
21481;DHT22;10902;48.158;8.634;2023-04-06T15:29:53;11.00;90.80
21481;DHT22;10902;48.158;8.634;2023-04-06T15:32:19;11.50;90.70